createdAt,value
2022-11-06T00:00:24.421Z,97.05
2022-11-06T00:02:27.777Z,96.73
2022-11-06T00:04:30.880Z,97.68
2022-11-06T00:06:48.417Z,97.50
2022-11-06T00:08:51.422Z,95.99
2022-11-06T00:10:54.424Z,96.24
2022-11-06T00:12:57.575Z,96.02
2022-11-06T00:15:01.958Z,95.86
2022-11-06T00:17:04.893Z,95.79
2022-11-06T00:19:08.611Z,95.47
2022-11-06T00:21:13.131Z,94.75
2022-11-06T00:23:16.130Z,95.16
2022-11-06T00:25:19.365Z,95.28
2022-11-06T00:27:22.284Z,95.46
2022-11-06T00:29:25.683Z,96.59
2022-11-06T00:31:32.857Z,95.47
2022-11-06T00:33:36.225Z,97.08
2022-11-06T00:35:40.390Z,96.19
2022-11-06T00:37:43.381Z,96.15
2022-11-06T00:39:46.358Z,96.44
2022-11-06T00:41:49.321Z,97.09
2022-11-06T00:43:53.735Z,96.47
2022-11-06T00:46:02.226Z,97.05
2022-11-06T00:48:07.182Z,97.09
2022-11-06T00:50:10.862Z,96.86
2022-11-06T00:52:14.274Z,96.71
2022-11-06T00:54:17.270Z,97.11
2022-11-06T00:56:20.981Z,95.83
2022-11-06T00:58:23.969Z,97.26
2022-11-06T01:00:26.961Z,96.10
2022-11-06T01:02:30.235Z,97.31
2022-11-06T01:04:34.832Z,96.85
2022-11-06T01:06:39.583Z,96.51
2022-11-06T01:08:42.892Z,96.32
2022-11-06T01:10:45.813Z,96.71
2022-11-06T01:12:49.101Z,96.30
2022-11-06T01:14:52.139Z,96.28
2022-11-06T01:16:55.149Z,97.01
2022-11-06T01:18:59.304Z,96.15
2022-11-06T01:21:06.490Z,96.64
2022-11-06T01:23:09.612Z,95.94
2022-11-06T01:25:12.518Z,96.34
2022-11-06T01:27:31.106Z,95.66
2022-11-06T01:29:34.410Z,95.30
2022-11-06T01:31:37.472Z,94.94
2022-11-06T01:33:40.928Z,94.79
2022-11-06T01:35:45.904Z,95.09
2022-11-06T01:37:50.457Z,95.15
2022-11-06T01:39:53.427Z,95.93
2022-11-06T01:41:56.368Z,95.05
2022-11-06T01:44:00.971Z,95.63
2022-11-06T01:46:03.977Z,95.97
2022-11-06T01:48:07.086Z,96.01
2022-11-06T01:50:11.322Z,95.44
2022-11-06T01:52:16.025Z,94.60
2022-11-06T01:54:21.352Z,95.13
2022-11-06T01:56:24.645Z,95.10
2022-11-06T01:58:29.840Z,94.44
2022-11-06T02:00:32.881Z,95.33
2022-11-06T02:02:36.517Z,96.21
2022-11-06T02:04:42.603Z,95.83
2022-11-06T02:06:47.010Z,96.58
2022-11-06T02:08:50.617Z,96.32
2022-11-06T02:10:55.665Z,96.22
2022-11-06T02:13:16.265Z,96.80
2022-11-06T02:15:27.169Z,95.66
2022-11-06T02:17:39.164Z,96.63
2022-11-06T02:19:55.543Z,96.40
2022-11-06T02:22:22.755Z,95.48
2022-11-06T02:24:37.029Z,96.51
2022-11-06T02:26:53.362Z,96.08
2022-11-06T02:28:59.291Z,96.36
2022-11-06T02:31:04.905Z,95.73
2022-11-06T02:33:11.295Z,96.47
2022-11-06T02:35:19.531Z,96.39
2022-11-06T02:37:26.663Z,96.96
2022-11-06T02:39:31.833Z,96.38
2022-11-06T02:41:38.051Z,96.97
2022-11-06T02:43:45.059Z,96.85
2022-11-06T02:45:51.977Z,96.44
2022-11-06T02:47:57.071Z,95.81
2022-11-06T02:50:05.505Z,95.68
2022-11-06T02:52:12.232Z,96.44
2022-11-06T02:54:16.933Z,95.91
2022-11-06T02:56:24.032Z,95.44
2022-11-06T02:58:31.590Z,95.00
2022-11-06T03:00:37.090Z,94.77
2022-11-06T03:02:45.030Z,95.04
2022-11-06T03:04:51.755Z,94.90
2022-11-06T03:06:58.945Z,95.04
2022-11-06T03:09:06.625Z,94.66
2022-11-06T03:11:16.137Z,95.22
2022-11-06T03:13:22.099Z,95.02
2022-11-06T03:15:30.098Z,94.94
2022-11-06T03:17:41.421Z,94.53
2022-11-06T03:19:49.955Z,94.30
2022-11-06T03:21:58.031Z,93.99
2022-11-06T03:24:05.683Z,93.93
2022-11-06T03:26:14.929Z,93.54
2022-11-06T03:28:25.060Z,93.69
2022-11-06T03:30:28.933Z,93.55
2022-11-06T03:32:35.969Z,93.36
2022-11-06T03:34:45.085Z,94.09
2022-11-06T03:36:51.111Z,94.79
2022-11-06T03:38:57.781Z,94.45
2022-11-06T03:41:03.763Z,94.74
2022-11-06T03:43:09.804Z,94.67
2022-11-06T03:45:16.790Z,94.50
2022-11-06T03:47:23.566Z,94.99
2022-11-06T03:49:30.896Z,94.70
2022-11-06T03:51:40.293Z,95.16
2022-11-06T03:53:49.320Z,94.79
2022-11-06T03:55:56.091Z,95.49
2022-11-06T03:58:03.845Z,95.30
2022-11-06T04:00:09.222Z,95.50
2022-11-06T04:02:19.117Z,95.41
2022-11-06T04:04:26.018Z,95.54
2022-11-06T04:06:33.560Z,95.51
2022-11-06T04:08:56.929Z,95.83
2022-11-06T04:11:19.983Z,96.11
2022-11-06T04:13:41.412Z,96.36
2022-11-06T04:15:50.069Z,95.73
2022-11-06T04:17:53.511Z,94.96
2022-11-06T04:19:59.568Z,94.63
2022-11-06T04:22:22.931Z,94.71
2022-11-06T04:24:52.895Z,94.15
2022-11-06T04:27:16.541Z,94.56
2022-11-06T04:29:28.016Z,94.22
2022-11-06T04:31:37.894Z,94.94
2022-11-06T04:33:47.386Z,95.30
2022-11-06T04:35:56.291Z,95.43
2022-11-06T04:38:04.259Z,95.40
2022-11-06T04:40:12.825Z,95.66
2022-11-06T04:42:19.952Z,95.05
2022-11-06T04:44:28.543Z,95.59
2022-11-06T04:46:34.938Z,95.57
2022-11-06T04:48:38.612Z,95.56
2022-11-06T04:50:45.872Z,95.49
2022-11-06T04:52:49.362Z,96.01
2022-11-06T04:54:52.977Z,95.82
2022-11-06T04:57:00.490Z,94.62
2022-11-06T04:59:03.615Z,95.02
2022-11-06T05:01:07.238Z,94.61
2022-11-06T05:03:10.361Z,94.35
2022-11-06T05:05:13.542Z,94.24
2022-11-06T05:07:17.853Z,94.08
2022-11-06T05:09:21.753Z,93.41
2022-11-06T05:11:24.766Z,93.31
2022-11-06T05:13:29.233Z,93.28
2022-11-06T05:15:32.327Z,93.62
2022-11-06T05:17:36.594Z,93.34
2022-11-06T05:19:39.896Z,93.26
2022-11-06T05:22:00.172Z,93.78
2022-11-06T05:24:03.389Z,93.13
2022-11-06T05:26:06.708Z,94.55
2022-11-06T05:28:10.561Z,94.83
2022-11-06T05:30:15.443Z,95.07
2022-11-06T05:32:18.630Z,95.03
2022-11-06T05:34:21.895Z,95.64
2022-11-06T05:36:24.978Z,95.90
2022-11-06T05:38:27.905Z,95.60
2022-11-06T05:40:31.508Z,96.15
2022-11-06T05:42:34.428Z,95.87
2022-11-06T05:44:37.685Z,96.14
2022-11-06T05:46:48.636Z,96.04
2022-11-06T05:48:52.831Z,95.92
2022-11-06T05:51:01.356Z,95.79
2022-11-06T05:53:04.705Z,95.65
2022-11-06T05:55:14.180Z,94.78
2022-11-06T05:57:18.160Z,94.56
2022-11-06T05:59:21.225Z,94.41
2022-11-06T06:01:24.291Z,93.82
2022-11-06T06:03:29.100Z,92.96
2022-11-06T06:05:32.229Z,93.12
2022-11-06T06:07:35.186Z,93.24
2022-11-06T06:09:38.150Z,93.79
2022-11-06T06:11:41.486Z,94.01
2022-11-06T06:13:44.528Z,94.57
2022-11-06T06:15:47.475Z,94.33
2022-11-06T06:17:50.816Z,95.04
2022-11-06T06:19:55.138Z,94.84
2022-11-06T06:21:58.217Z,93.62
2022-11-06T06:24:01.431Z,94.35
2022-11-06T06:26:05.050Z,94.25
2022-11-06T06:28:08.560Z,94.05
2022-11-06T06:30:12.973Z,94.59
2022-11-06T06:32:15.883Z,95.09
2022-11-06T06:34:19.014Z,94.02
2022-11-06T06:36:23.487Z,94.40
2022-11-06T06:38:26.937Z,95.33
2022-11-06T06:40:30.766Z,94.76
2022-11-06T06:42:34.075Z,95.74
2022-11-06T06:44:37.096Z,96.12
2022-11-06T06:46:40.163Z,96.26
2022-11-06T06:48:43.199Z,95.96
2022-11-06T06:50:46.209Z,96.05
2022-11-06T06:52:50.825Z,95.48
2022-11-06T06:54:54.251Z,95.75
2022-11-06T06:56:57.274Z,95.11
2022-11-06T06:59:00.235Z,95.18
2022-11-06T07:01:04.364Z,95.54
2022-11-06T07:03:07.464Z,95.18
2022-11-06T07:05:10.611Z,94.96
2022-11-06T07:07:13.726Z,94.64
2022-11-06T07:09:19.269Z,94.57
2022-11-06T07:11:22.642Z,95.20
2022-11-06T07:13:25.843Z,94.90
2022-11-06T07:15:29.021Z,94.98
2022-11-06T07:17:32.111Z,94.60
2022-11-06T07:19:35.471Z,94.65
2022-11-06T07:21:38.630Z,94.35
2022-11-06T07:23:42.201Z,94.50
2022-11-06T07:25:53.196Z,93.83
2022-11-06T07:28:01.649Z,94.21
2022-11-06T07:30:06.570Z,94.27
2022-11-06T07:32:10.224Z,94.24
2022-11-06T07:34:13.600Z,93.99
2022-11-06T07:36:16.717Z,92.86
2022-11-06T07:38:19.822Z,91.76
2022-11-06T07:40:22.848Z,93.20
2022-11-06T07:42:27.204Z,92.86
2022-11-06T07:44:38.117Z,92.36
2022-11-06T07:46:41.165Z,92.20
2022-11-06T07:48:44.172Z,91.94
2022-11-06T07:50:47.127Z,91.31
2022-11-06T07:52:50.370Z,91.59
2022-11-06T07:54:53.346Z,91.90
2022-11-06T07:56:56.279Z,92.63
2022-11-06T07:59:00.857Z,92.63
2022-11-06T08:01:04.404Z,92.73
2022-11-06T08:03:07.601Z,92.20
2022-11-06T08:05:10.616Z,92.82
2022-11-06T08:07:13.673Z,92.45
2022-11-06T08:09:16.669Z,92.22
2022-11-06T08:11:20.115Z,93.53
2022-11-06T08:13:23.117Z,92.49
2022-11-06T08:15:27.604Z,92.17
2022-11-06T08:17:31.222Z,92.38
2022-11-06T08:19:34.281Z,91.94
2022-11-06T08:21:37.409Z,90.84
2022-11-06T08:23:40.439Z,92.37
2022-11-06T08:25:43.474Z,92.18
2022-11-06T08:27:46.527Z,92.63
2022-11-06T08:29:49.618Z,92.66
2022-11-06T08:31:54.095Z,92.84
2022-11-06T08:33:57.186Z,93.67
2022-11-06T08:36:02.314Z,92.81
2022-11-06T08:38:05.733Z,93.48
2022-11-06T08:40:10.160Z,94.76
2022-11-06T08:42:13.973Z,94.27
2022-11-06T08:44:17.247Z,94.68
2022-11-06T08:46:20.256Z,94.36
2022-11-06T08:48:24.666Z,94.93
2022-11-06T08:50:27.784Z,94.25
2022-11-06T08:52:34.071Z,94.38
2022-11-06T08:54:37.422Z,94.38
2022-11-06T08:56:40.913Z,94.57
2022-11-06T08:58:43.941Z,93.30
2022-11-06T09:00:47.313Z,93.39
2022-11-06T09:02:50.570Z,92.57
2022-11-06T09:04:54.956Z,92.29
2022-11-06T09:06:58.634Z,92.62
2022-11-06T09:09:02.710Z,93.29
2022-11-06T09:11:08.429Z,93.71
2022-11-06T09:13:12.832Z,92.29
2022-11-06T09:15:16.869Z,92.99
2022-11-06T09:17:23.822Z,91.07
2022-11-06T09:19:27.230Z,91.68
2022-11-06T09:21:32.730Z,90.81
2022-11-06T09:23:35.992Z,90.66
2022-11-06T09:25:39.120Z,90.62
2022-11-06T09:27:43.772Z,91.95
2022-11-06T09:29:48.049Z,88.57
2022-11-06T09:31:51.217Z,90.84
2022-11-06T09:33:54.243Z,91.36
2022-11-06T09:35:57.592Z,90.42
2022-11-06T09:38:06.012Z,90.89
2022-11-06T09:40:16.910Z,89.86
2022-11-06T09:42:27.182Z,90.71
2022-11-06T09:44:45.270Z,90.38
2022-11-06T09:46:48.631Z,88.35
2022-11-06T09:48:56.872Z,85.82
2022-11-06T09:51:04.961Z,84.81
2022-11-06T09:53:15.595Z,85.21
2022-11-06T09:55:22.381Z,86.22
2022-11-06T09:57:30.151Z,85.98
2022-11-06T09:59:35.676Z,84.62
2022-11-06T10:01:43.773Z,83.76
2022-11-06T10:03:50.794Z,82.15
2022-11-06T10:05:54.451Z,81.83
2022-11-06T10:08:00.030Z,80.60
2022-11-06T10:10:06.976Z,79.98
2022-11-06T10:12:17.505Z,80.47
2022-11-06T10:14:29.765Z,80.85
2022-11-06T10:16:39.139Z,81.71
2022-11-06T10:18:52.417Z,79.62
2022-11-06T10:20:58.538Z,79.94
2022-11-06T10:23:06.477Z,80.75
2022-11-06T10:25:21.984Z,78.58
2022-11-06T10:27:29.705Z,79.11
2022-11-06T10:29:42.131Z,80.48
2022-11-06T10:31:53.506Z,79.46
2022-11-06T10:33:59.026Z,80.09
2022-11-06T10:36:07.327Z,79.04
2022-11-06T10:38:13.914Z,80.15
2022-11-06T10:40:21.169Z,81.42
2022-11-06T10:42:35.145Z,80.50
2022-11-06T10:44:43.603Z,79.24
2022-11-06T10:46:50.391Z,79.43
2022-11-06T10:48:58.532Z,79.54
2022-11-06T10:51:12.418Z,79.29
2022-11-06T10:53:22.835Z,79.31
2022-11-06T10:56:05.519Z,79.83
2022-11-06T10:58:15.404Z,79.30
2022-11-06T11:00:18.998Z,78.62
2022-11-06T11:02:27.651Z,78.64
2022-11-06T11:04:32.191Z,76.17
2022-11-06T11:06:35.412Z,76.16
2022-11-06T11:08:41.989Z,77.27
2022-11-06T11:11:00.761Z,76.08
2022-11-06T11:13:21.195Z,77.60
2022-11-06T11:15:25.438Z,78.55
2022-11-06T11:17:28.457Z,78.01
2022-11-06T11:19:36.457Z,78.76
2022-11-06T11:21:42.571Z,76.73
2022-11-06T11:23:45.897Z,77.05
2022-11-06T11:25:50.509Z,77.65
2022-11-06T11:27:53.647Z,75.45
2022-11-06T11:29:58.343Z,75.25
2022-11-06T11:32:03.417Z,74.43
2022-11-06T11:34:15.526Z,75.79
2022-11-06T11:36:18.639Z,75.84
2022-11-06T11:38:22.795Z,74.60
2022-11-06T11:40:36.356Z,75.09
2022-11-06T11:42:39.645Z,76.46
2022-11-06T11:44:42.734Z,76.43
2022-11-06T11:46:51.246Z,75.71
2022-11-06T11:48:56.713Z,74.51
2022-11-06T11:51:09.673Z,75.83
2022-11-06T11:53:16.012Z,74.70
2022-11-06T11:55:22.504Z,76.78
2022-11-06T11:57:26.872Z,74.73
2022-11-06T11:59:31.991Z,75.95
2022-11-06T12:01:38.791Z,74.97
2022-11-06T12:03:53.692Z,75.65
2022-11-06T12:06:05.525Z,75.73
2022-11-06T12:08:15.324Z,76.11
2022-11-06T12:10:28.879Z,76.35
2022-11-06T12:12:33.480Z,76.29
2022-11-06T12:14:37.631Z,75.59
2022-11-06T12:16:40.721Z,75.15
2022-11-06T12:18:47.166Z,75.86
2022-11-06T12:20:53.435Z,75.81
2022-11-06T12:22:57.807Z,76.20
2022-11-06T12:25:04.996Z,76.49
2022-11-06T12:27:12.713Z,75.76
2022-11-06T12:29:17.947Z,76.60
2022-11-06T12:31:24.761Z,76.41
2022-11-06T12:34:04.036Z,75.39
2022-11-06T12:36:00.035Z,75.64
2022-11-06T12:38:13.202Z,75.80
2022-11-06T12:40:25.091Z,75.49
2022-11-06T12:42:32.129Z,76.56
2022-11-06T12:44:35.148Z,75.48
2022-11-06T12:46:41.960Z,75.02
2022-11-06T12:48:54.715Z,76.01
2022-11-06T12:51:04.034Z,76.71
2022-11-06T12:53:16.527Z,76.06
2022-11-06T12:55:24.563Z,76.85
2022-11-06T12:57:33.138Z,76.13
2022-11-06T12:59:44.688Z,77.32
2022-11-06T13:01:53.963Z,76.89
2022-11-06T13:04:23.050Z,76.70
2022-11-06T13:06:50.620Z,77.00
2022-11-06T13:08:57.523Z,77.45
2022-11-06T13:11:09.775Z,77.38
2022-11-06T13:13:31.376Z,76.74
2022-11-06T13:15:38.579Z,77.79
2022-11-06T13:17:48.568Z,76.91
2022-11-06T13:19:55.205Z,77.56
2022-11-06T13:22:18.498Z,77.25
2022-11-06T13:24:27.943Z,76.91
2022-11-06T13:26:35.708Z,75.74
2022-11-06T13:28:41.664Z,76.47
2022-11-06T13:30:45.380Z,77.25
2022-11-06T13:32:58.898Z,75.64
2022-11-06T13:35:03.586Z,77.49
2022-11-06T13:37:14.111Z,76.21
2022-11-06T13:39:21.889Z,76.75
2022-11-06T13:41:27.473Z,77.14
2022-11-06T13:43:34.452Z,76.80
2022-11-06T13:45:46.659Z,75.93
2022-11-06T13:47:58.855Z,75.84
2022-11-06T13:50:05.450Z,76.35
2022-11-06T13:52:11.747Z,75.30
2022-11-06T13:54:24.709Z,76.42
2022-11-06T13:56:53.533Z,78.31
2022-11-06T13:59:34.227Z,77.13
2022-11-06T14:01:49.515Z,78.06
2022-11-06T14:04:27.031Z,76.84
2022-11-06T14:06:31.737Z,77.14
2022-11-06T14:08:40.805Z,77.07
2022-11-06T14:10:51.612Z,79.11
2022-11-06T14:12:54.781Z,77.54
2022-11-06T14:15:17.312Z,78.24
2022-11-06T14:17:22.782Z,77.67
2022-11-06T14:19:27.777Z,78.65
2022-11-06T14:21:48.952Z,79.99
2022-11-06T14:23:54.737Z,80.33
2022-11-06T14:26:01.492Z,80.23
2022-11-06T14:28:06.768Z,81.10
2022-11-06T14:30:19.733Z,79.78
2022-11-06T14:32:43.918Z,80.36
2022-11-06T14:34:47.043Z,81.13
2022-11-06T14:36:50.870Z,80.85
2022-11-06T14:38:54.385Z,78.51
2022-11-06T14:40:57.841Z,79.30
2022-11-06T14:43:02.287Z,77.88
2022-11-06T14:45:11.974Z,79.31
2022-11-06T14:47:36.378Z,77.04
2022-11-06T14:49:43.845Z,77.45
2022-11-06T14:51:59.015Z,77.85
2022-11-06T14:54:05.412Z,76.14
2022-11-06T14:56:09.882Z,76.26
2022-11-06T14:58:16.892Z,77.47
2022-11-06T15:00:48.889Z,77.83
2022-11-06T15:02:52.404Z,78.21
2022-11-06T15:04:59.338Z,78.42
2022-11-06T15:07:08.871Z,78.18
2022-11-06T15:09:15.626Z,77.97
2022-11-06T15:11:55.740Z,78.14
2022-11-06T15:14:39.070Z,79.15
2022-11-06T15:16:44.574Z,79.83
2022-11-06T15:18:47.902Z,78.62
2022-11-06T15:20:52.366Z,78.88
2022-11-06T15:23:05.573Z,80.30
2022-11-06T15:25:20.407Z,79.86
2022-11-06T15:27:27.022Z,80.39
2022-11-06T15:29:34.200Z,81.30
2022-11-06T15:31:37.692Z,80.73
2022-11-06T15:33:49.433Z,81.01
2022-11-06T15:35:57.288Z,81.29
2022-11-06T15:38:08.431Z,82.01
2022-11-06T15:40:24.110Z,81.94
2022-11-06T15:42:29.812Z,81.95
2022-11-06T15:44:38.593Z,82.88
2022-11-06T15:46:53.795Z,82.73
2022-11-06T15:49:16.250Z,82.98
2022-11-06T15:51:24.177Z,83.14
2022-11-06T15:53:29.087Z,82.89
2022-11-06T15:55:35.179Z,84.23
2022-11-06T15:57:38.295Z,83.32
2022-11-06T15:59:42.835Z,83.86
2022-11-06T16:01:48.706Z,84.54
2022-11-06T16:03:53.860Z,84.69
2022-11-06T16:05:58.620Z,84.62
2022-11-06T16:08:02.126Z,85.12
2022-11-06T16:10:06.086Z,84.81
2022-11-06T16:12:12.544Z,84.80
2022-11-06T16:14:16.586Z,85.29
2022-11-06T16:16:34.006Z,84.85
2022-11-06T16:18:41.483Z,85.13
2022-11-06T16:20:45.757Z,85.45
2022-11-06T16:22:49.026Z,85.34
2022-11-06T16:24:55.446Z,85.42
2022-11-06T16:26:58.748Z,85.52
2022-11-06T16:29:02.229Z,86.34
2022-11-06T16:31:09.344Z,85.63
2022-11-06T16:33:31.616Z,86.42
2022-11-06T16:35:36.834Z,86.31
2022-11-06T16:37:40.231Z,86.57
2022-11-06T16:39:49.404Z,86.37
2022-11-06T16:42:03.379Z,86.54
2022-11-06T16:44:30.470Z,86.43
2022-11-06T16:47:14.686Z,86.50
2022-11-06T16:49:33.166Z,86.89
2022-11-06T16:51:36.223Z,86.95
2022-11-06T16:54:00.804Z,86.94
2022-11-06T16:56:07.394Z,86.88
2022-11-06T16:58:16.251Z,86.76
2022-11-06T17:00:25.035Z,87.19
2022-11-06T17:02:32.184Z,87.52
2022-11-06T17:04:35.561Z,86.59
2022-11-06T17:06:39.196Z,87.48
2022-11-06T17:08:42.442Z,86.09
2022-11-06T17:10:46.779Z,86.70
2022-11-06T17:12:49.944Z,85.46
2022-11-06T17:14:53.226Z,85.86
2022-11-06T17:16:58.712Z,86.32
2022-11-06T17:19:03.256Z,86.94
2022-11-06T17:21:07.621Z,86.09
2022-11-06T17:23:15.798Z,86.03
2022-11-06T17:25:19.664Z,86.60
2022-11-06T17:27:22.771Z,86.35
2022-11-06T17:29:25.825Z,86.42
2022-11-06T17:31:29.086Z,85.48
2022-11-06T17:33:32.294Z,85.57
2022-11-06T17:35:37.063Z,86.04
2022-11-06T17:37:40.174Z,86.14
2022-11-06T17:39:43.366Z,84.83
2022-11-06T17:41:46.579Z,85.22
2022-11-06T17:43:49.617Z,85.13
2022-11-06T17:45:53.096Z,85.76
2022-11-06T17:47:56.243Z,85.84
2022-11-06T17:49:59.840Z,85.70
2022-11-06T17:52:03.606Z,85.75
2022-11-06T17:54:06.935Z,85.82
2022-11-06T17:56:10.157Z,86.64
2022-11-06T17:58:13.934Z,85.97
2022-11-06T18:00:18.470Z,86.27
2022-11-06T18:02:41.221Z,85.11
2022-11-06T18:04:45.052Z,84.92
2022-11-06T18:06:49.687Z,84.58
2022-11-06T18:08:58.749Z,84.53
2022-11-06T18:13:20.649Z,85.37
2022-11-06T18:15:23.735Z,84.67
2022-11-06T18:17:27.107Z,85.01
2022-11-06T18:19:30.225Z,84.08
2022-11-06T18:21:40.247Z,84.28
2022-11-06T18:32:06.144Z,84.46
2022-11-06T18:34:19.405Z,85.59
2022-11-06T18:36:25.438Z,85.01
2022-11-06T18:38:29.217Z,85.98
2022-11-06T18:40:35.066Z,86.78
2022-11-06T18:42:38.352Z,86.96
2022-11-06T18:44:42.250Z,87.26
2022-11-06T18:46:46.025Z,86.37
2022-11-06T18:48:53.055Z,87.68
2022-11-06T18:50:56.646Z,87.88
2022-11-06T18:52:59.956Z,88.13
2022-11-06T18:55:06.300Z,87.94
2022-11-06T18:57:09.657Z,88.51
2022-11-06T18:59:19.569Z,88.10
2022-11-06T19:01:24.215Z,88.01
2022-11-06T19:03:27.661Z,89.11
2022-11-06T19:05:34.452Z,89.31
2022-11-06T19:07:37.957Z,89.98
2022-11-06T19:09:41.474Z,88.80
2022-11-06T19:11:45.149Z,89.11
2022-11-06T19:13:48.964Z,90.51
2022-11-06T19:15:55.585Z,90.14
2022-11-06T19:17:59.008Z,90.30
2022-11-06T19:20:04.452Z,89.94
2022-11-06T19:22:11.500Z,89.85
2022-11-06T19:24:15.614Z,89.99
2022-11-06T19:26:31.078Z,90.27
2022-11-06T19:28:38.990Z,90.97
2022-11-06T19:30:42.709Z,90.97
2022-11-06T19:32:46.284Z,90.58
2022-11-06T19:34:49.787Z,91.10
2022-11-06T19:36:53.257Z,90.94
2022-11-06T19:38:58.658Z,90.87
2022-11-06T19:41:03.397Z,91.56
2022-11-06T19:43:08.598Z,91.21
2022-11-06T19:45:12.276Z,91.06
2022-11-06T19:47:15.622Z,91.87
2022-11-06T19:49:19.122Z,92.12
2022-11-06T19:51:22.932Z,92.60
2022-11-06T19:53:26.882Z,92.00
2022-11-06T19:55:31.805Z,90.86
2022-11-06T19:57:35.729Z,91.71
2022-11-06T19:59:39.416Z,90.85
2022-11-06T20:01:43.024Z,91.24
2022-11-06T20:03:47.714Z,92.16
2022-11-06T20:05:51.499Z,91.53
2022-11-06T20:07:55.144Z,92.43
2022-11-06T20:10:02.185Z,92.37
2022-11-06T20:12:08.403Z,91.71
2022-11-06T20:14:11.900Z,92.70
2022-11-06T20:16:16.858Z,90.92
2022-11-06T20:18:20.553Z,91.09
2022-11-06T20:20:24.246Z,90.01
2022-11-06T20:22:27.791Z,91.09
2022-11-06T20:24:31.169Z,91.09
2022-11-06T20:26:34.633Z,90.98
2022-11-06T20:28:39.333Z,91.55
2022-11-06T20:30:42.926Z,91.41
2022-11-06T20:32:46.964Z,91.15
2022-11-06T20:34:50.316Z,91.21
2022-11-06T20:36:54.433Z,91.71
2022-11-06T20:39:00.723Z,91.46
2022-11-06T20:41:05.166Z,90.59
2022-11-06T20:43:09.474Z,90.32
2022-11-06T20:45:16.099Z,89.00
2022-11-06T20:47:21.848Z,89.04
2022-11-06T20:49:25.342Z,90.30
2022-11-06T20:51:31.884Z,91.20
2022-11-06T20:53:36.042Z,90.71
2022-11-06T20:55:39.532Z,91.21
2022-11-06T20:57:43.008Z,91.50
2022-11-06T20:59:47.939Z,90.96
2022-11-06T21:01:54.161Z,91.87
2022-11-06T21:04:00.535Z,91.63
2022-11-06T21:06:05.749Z,92.91
2022-11-06T21:08:11.091Z,92.70
2022-11-06T21:10:18.152Z,93.48
2022-11-06T21:12:27.012Z,92.79
2022-11-06T21:14:30.635Z,93.38
2022-11-06T21:16:36.454Z,93.21
2022-11-06T21:18:44.738Z,93.25
2022-11-06T21:20:48.076Z,92.41
2022-11-06T21:22:54.216Z,92.71
2022-11-06T21:24:57.802Z,93.08
2022-11-06T21:27:04.044Z,92.31
2022-11-06T21:29:12.691Z,91.95
2022-11-06T21:31:17.735Z,91.39
2022-11-06T21:33:21.509Z,92.17
2022-11-06T21:35:26.631Z,90.69
2022-11-06T21:37:34.801Z,89.22
2022-11-06T21:39:38.741Z,89.04
2022-11-06T21:41:42.781Z,88.35
2022-11-06T21:43:48.174Z,88.03
2022-11-06T21:45:51.634Z,86.95
2022-11-06T21:47:55.044Z,85.30
2022-11-06T21:49:58.686Z,84.77
2022-11-06T21:52:17.531Z,84.82
2022-11-06T21:54:40.944Z,84.16
2022-11-06T21:56:44.940Z,84.05
2022-11-06T21:58:52.526Z,83.78
2022-11-06T22:00:55.957Z,83.53
2022-11-06T22:02:59.641Z,82.70
2022-11-06T22:05:03.255Z,82.11
2022-11-06T22:07:08.317Z,81.88
2022-11-06T22:09:13.359Z,80.73
2022-11-06T22:11:21.293Z,80.50
2022-11-06T22:13:26.851Z,80.32
2022-11-06T22:15:30.135Z,80.34
2022-11-06T22:17:35.452Z,80.22
2022-11-06T22:19:40.049Z,79.65
2022-11-06T22:21:43.373Z,80.50
2022-11-06T22:23:48.479Z,80.55
2022-11-06T22:25:52.004Z,80.09
2022-11-06T22:27:55.190Z,80.92
2022-11-06T22:29:58.471Z,82.32
2022-11-06T22:32:01.914Z,83.85
2022-11-06T22:34:05.631Z,85.24
2022-11-06T22:36:10.885Z,84.96
2022-11-06T22:38:15.275Z,85.32
2022-11-06T22:40:19.974Z,86.29
2022-11-06T22:42:23.734Z,87.00
2022-11-06T22:44:27.344Z,87.91
2022-11-06T22:46:31.444Z,88.31
2022-11-06T22:48:35.665Z,89.04
2022-11-06T22:50:42.099Z,89.40
2022-11-06T22:52:45.703Z,88.99
2022-11-06T22:54:49.482Z,89.56
2022-11-06T22:56:57.028Z,89.78
2022-11-06T22:59:03.159Z,89.94
2022-11-06T23:01:07.340Z,90.25
2022-11-06T23:03:18.588Z,90.40
2022-11-06T23:05:22.215Z,90.15
2022-11-06T23:07:26.259Z,91.54
2022-11-06T23:09:33.251Z,90.75
2022-11-06T23:11:36.813Z,90.16
2022-11-06T23:14:13.365Z,90.75
2022-11-06T23:20:54.206Z,91.86
2022-11-06T23:22:58.334Z,93.64
2022-11-06T23:25:01.519Z,93.34
2022-11-06T23:27:05.081Z,92.74
2022-11-06T23:29:09.540Z,93.95
2022-11-06T23:31:14.076Z,92.92
2022-11-06T23:33:17.372Z,93.38
2022-11-06T23:35:22.865Z,92.40
2022-11-06T23:37:26.875Z,93.37
2022-11-06T23:39:30.266Z,92.70
2022-11-06T23:41:45.751Z,92.41
2022-11-06T23:43:51.642Z,91.99
2022-11-06T23:45:55.125Z,91.71
2022-11-06T23:47:58.317Z,92.65
2022-11-06T23:50:02.178Z,91.71
2022-11-06T23:52:06.395Z,92.92
2022-11-06T23:54:11.318Z,93.10
2022-11-06T23:56:14.989Z,92.72
2022-11-06T23:58:18.201Z,93.34
